Latest Weather Observations for Parawa West

IDS60901

Issued at 8:31 pm CST Tuesday 7 July 2015 (issued every 10 minutes, with the page automatically refreshed every 10 minutes)

About weather observations | Map of Adelaide area stations | Latest observations for Adelaide area | Other Formats
Station Details ID: 023875 Name: SECOND VALLEY FOREST AWS Lat: -35.57 Lon: 138.29 Height: 341.0 m
Data from the previous 72 hours. | See also: Recent months at Parawa West
Date/Time
CST
Tmp

°C
App
Tmp
°C
Dew
Point
°C
Rel
Hum
%
Delta-T

°C
Wind Press
QNH
hPa
Press
MSL
hPa
Rain
since
9 am
mm
Dir
 
Spd
km/h
Gust
km/h
Spd
kts
Gust
kts
07/08:30pm 9.2 8.1 8.4 95 0.4 NW 4 4 2 2 1022.7 1023.1 2.0
07/08:00pm 9.3 7.8 8.5 95 0.4 NW 6 7 3 4 1022.5 1022.9 2.0
07/07:30pm 9.2 7.5 8.3 94 0.4 NW 7 7 4 4 1022.3 1022.7 2.0
07/07:00pm 9.0 7.8 8.1 94 0.4 NW 4 6 2 3 1022.1 1022.5 2.0
07/06:30pm 9.1 7.5 8.2 94 0.4 NW 6 7 3 4 1022.0 1022.4 1.8
07/06:00pm 9.2 7.6 8.1 93 0.5 SW 6 7 3 4 1021.8 1022.2 1.8
07/05:30pm 9.5 8.3 8.1 91 0.7 SW 4 6 2 3 1021.5 1021.9 1.8
07/05:00pm 10.5 9.4 8.6 88 1.0 SW 4 9 2 5 1021.4 1021.7 1.8
07/04:30pm 10.7 9.8 9.1 90 0.8 SW 4 6 2 3 1021.2 1021.5 1.8
07/04:00pm 10.6 9.6 8.9 89 0.9 SW 4 6 2 3 1021.0 1021.3 1.8
07/03:30pm 10.7 9.8 9.1 90 0.8 SW 4 6 2 3 1021.0 1021.3 1.8
07/03:00pm 10.8 9.3 8.6 86 1.1 SW 6 9 3 5 1020.8 1021.1 1.8
07/02:30pm 11.0 8.9 8.4 84 1.3 SW 9 13 5 7 1020.8 1021.1 1.8
07/02:00pm 11.1 9.7 9.7 91 0.7 SSW 7 11 4 6 1020.8 1021.1 1.8
07/01:30pm 10.4 8.9 9.2 92 0.6 SW 7 11 4 6 1020.9 1021.2 1.8
07/01:00pm 10.8 8.7 9.6 92 0.6 S 11 15 6 8 1021.0 1021.3 1.6
07/12:30pm 10.4 7.8 9.3 93 0.6 S 13 17 7 9 1021.1 1021.4 1.4
07/12:00pm 10.8 8.7 9.7 93 0.6 SSE 11 13 6 7 1021.4 1021.7 0.8
07/11:30am 10.9 8.4 9.7 92 0.6 SSW 13 20 7 11 1021.5 1021.9 0.8
07/11:00am 10.5 7.9 9.4 93 0.6 SSW 13 19 7 10 1021.6 1022.0 0.8
07/10:30am 10.7 9.4 9.8 94 0.5 SSW 7 13 4 7 1021.7 1022.1 0.8
07/10:00am 10.2 7.2 9.3 94 0.5 SSW 15 20 8 11 1021.6 1022.0 0.6
07/09:30am 10.3 8.4 9.2 93 0.6 SW 9 15 5 8 1021.3 1021.6 0.0
07/09:00am 10.2 8.4 9.3 94 0.5 WSW 9 15 5 8 1021.0 1021.3 1.6
07/08:30am 9.7 7.8 8.9 95 0.4 SW 9 15 5 8 1020.8 1021.1 1.6
07/08:00am 9.6 8.0 8.8 95 0.4 WSW 7 13 4 7 1020.5 1020.8 1.6
07/07:30am 9.5 7.5 8.7 95 0.4 WSW 9 15 5 8 1020.1 1020.5 1.6
07/07:00am 9.7 7.8 8.9 95 0.4 WSW 9 17 5 9 1020.0 1020.4 1.6
07/06:30am 9.6 7.2 8.7 94 0.4 WSW 11 17 6 9 1019.6 1020.0 1.6
07/06:00am 9.7 7.4 8.9 95 0.4 WSW 11 19 6 10 1019.2 1019.6 1.6
07/05:30am 9.7 7.0 8.8 94 0.4 W 13 20 7 11 1019.0 1019.4 1.4
07/05:00am 9.7 7.4 8.9 95 0.4 WSW 11 17 6 9 1018.7 1019.0 1.4
07/04:30am 9.7 7.0 8.8 94 0.4 W 13 22 7 12 1018.6 1018.9 1.4
07/04:00am 9.7 7.0 8.9 95 0.4 W 13 20 7 11 1018.5 1018.8 1.4
07/03:30am 9.5 6.7 8.7 95 0.4 W 13 26 7 14 1018.5 1018.8 1.4
07/03:00am 9.6 6.9 8.8 95 0.4 W 13 19 7 10 1018.6 1018.9 1.4
07/02:30am 9.6 5.8 9.0 96 0.3 W 19 28 10 15 1018.6 1018.9 1.4
07/02:00am 9.5 6.8 8.9 96 0.3 W 13 22 7 12 1018.5 1018.8 1.4
07/01:30am 9.5 6.0 8.7 95 0.4 W 17 28 9 15 1018.4 1018.7 1.4
07/01:00am 9.5 6.4 8.7 95 0.4 W 15 20 8 11 1018.3 1018.6 1.4
07/12:30am 9.6 6.1 8.7 94 0.4 W 17 24 9 13 1018.4 1018.7 1.4
07/12:00am 9.6 6.1 8.7 94 0.4 W 17 24 9 13 1018.3 1018.6 1.4
 
Date/Time
CST
Tmp

°C
App
Tmp
°C
Dew
Point
°C
Rel
Hum
%
Delta-T

°C
Wind Press
QNH
hPa
Press
MSL
hPa
Rain
since
9 am
mm
Dir
 
Spd
km/h
Gust
km/h
Spd
kts
Gust
kts
06/11:30pm 9.7 6.2 8.6 93 0.5 W 17 24 9 13 1018.5 1018.8 1.4
06/11:00pm 9.8 6.3 8.7 93 0.5 W 17 22 9 12 1018.5 1018.8 1.4
06/10:30pm 9.7 6.9 8.6 93 0.5 W 13 20 7 11 1018.5 1018.8 1.4
06/10:00pm 9.7 6.9 8.6 93 0.5 W 13 20 7 11 1018.3 1018.6 1.4
06/09:30pm 9.6 6.0 8.4 92 0.6 W 17 24 9 13 1018.2 1018.5 1.4
06/09:00pm 9.6 6.0 8.4 92 0.6 W 17 26 9 14 1017.9 1018.2 1.4
06/08:30pm 9.9 6.0 8.7 92 0.6 W 19 28 10 15 1017.4 1017.7 1.4
06/08:00pm 10.0 5.9 8.6 91 0.7 W 20 28 11 15 1017.1 1017.5 1.4
06/07:30pm 10.0 5.8 8.4 90 0.8 W 20 33 11 18 1017.0 1017.4 1.4
06/07:00pm 9.8 6.6 8.4 91 0.7 W 15 20 8 11 1016.8 1017.2 1.4
06/06:30pm 9.5 6.2 7.9 90 0.8 W 15 20 8 11 1016.6 1017.0 1.4
06/06:00pm 9.8 6.5 8.1 89 0.8 W 15 20 8 11 1016.4 1016.7 1.4
06/05:30pm 9.9 5.6 7.8 87 1.0 W 20 30 11 16 1016.1 1016.4 1.4
06/05:00pm 10.4 7.8 9.2 92 0.6 W 13 19 7 10 1015.7 1016.0 1.2
06/04:30pm 10.4 7.3 8.8 90 0.8 WNW 15 20 8 11 1015.5 1015.8 1.2
06/04:00pm 10.6 7.1 8.7 88 1.0 WNW 17 24 9 13 1015.3 1015.6 1.2
06/03:30pm 10.2 7.1 8.8 91 0.7 WNW 15 22 8 12 1015.1 1015.4 1.2
06/03:00pm 10.5 6.4 8.8 89 0.9 W 20 32 11 17 1015.1 1015.4 1.2
06/02:30pm 10.3 7.1 8.4 88 0.9 WNW 15 24 8 13 1014.9 1015.2 1.2
06/02:00pm 10.7 6.9 9.1 90 0.8 WNW 19 30 10 16 1014.8 1015.1 0.2
06/01:30pm 11.3 6.8 8.7 84 1.3 NW 22 43 12 23 1015.0 1015.3 0.0
06/01:00pm 11.0 6.9 8.6 85 1.2 WNW 20 33 11 18 1015.3 1015.6 0.0
06/12:30pm 11.1 7.6 8.7 85 1.2 WNW 17 28 9 15 1015.3 1015.6 0.0
06/12:00pm 11.2 6.5 7.7 79 1.7 WNW 22 33 12 18 1015.5 1015.8 0.0
06/11:30am 11.2 7.0 8.1 81 1.5 NW 20 32 11 17 1015.6 1015.9 0.0
06/11:00am 11.5 7.2 7.8 78 1.8 WNW 20 33 11 18 1015.7 1016.0 0.0
06/10:30am 11.5 7.5 8.4 81 1.6 WNW 19 30 10 16 1015.7 1016.0 0.0
06/10:00am 11.3 8.2 8.7 84 1.3 WNW 15 22 8 12 1015.7 1016.0 0.0
06/09:30am 10.6 7.7 8.2 85 1.2 WNW 13 19 7 10 1015.4 1015.7 0.0
06/09:00am 10.0 7.0 7.9 87 1.0 WNW 13 19 7 10 1015.2 1015.5 9.8
06/08:30am 9.3 6.7 7.6 89 0.8 WNW 11 17 6 9 1014.9 1015.2 9.8
06/08:00am 9.4 6.4 7.8 90 0.8 WNW 13 20 7 11 1014.6 1014.9 9.6
06/07:30am 9.9 7.1 8.7 92 0.6 WNW 13 24 7 13 1014.2 1014.5 9.6
06/07:00am 10.2 6.8 9.0 92 0.6 WNW 17 28 9 15 1013.9 1014.2 9.6
06/06:30am 10.2 7.1 9.0 92 0.6 NNW 15 26 8 14 1013.8 1014.1 9.6
06/06:00am 9.9 7.2 9.0 94 0.5 NW 13 24 7 13 1013.6 1013.9 9.6
06/05:30am 9.4 7.4 8.6 95 0.4 NNW 9 17 5 9 1013.8 1014.1 9.6
06/05:00am 8.8 7.0 7.9 94 0.4 NNW 7 13 4 7 1013.8 1014.1 9.6
06/04:30am 8.6 6.7 7.5 93 0.5 NW 7 9 4 5 1013.9 1014.2 8.6
06/04:00am 8.6 7.3 7.5 93 0.5 NNW 4 7 2 4 1013.9 1014.2 8.6
06/03:30am 7.8 7.0 6.6 92 0.6 CALM 0 0 0 0 1013.9 1014.2 8.6
06/03:00am 7.9 5.9 6.4 90 0.7 NNW 6 11 3 6 1014.3 1014.6 8.4
06/02:30am 8.4 6.3 6.7 89 0.8 N 7 13 4 7 1014.3 1014.6 7.8
06/02:00am 8.9 6.5 7.2 89 0.8 WNW 9 17 5 9 1015.0 1015.3 6.4
06/01:30am 9.1 6.5 7.9 92 0.6 WNW 11 22 6 12 1015.7 1016.0 5.6
06/01:00am 9.7 8.1 8.6 93 0.5 WNW 7 13 4 7 1015.5 1015.8 2.0
06/12:30am 9.8 8.6 8.2 90 0.8 NW 4 9 2 5 1015.0 1015.3 0.8
06/12:00am 10.0 8.5 8.3 89 0.8 NW 6 11 3 6 1015.0 1015.3 0.4
 
Date/Time
CST
Tmp

°C
App
Tmp
°C
Dew
Point
°C
Rel
Hum
%
Delta-T

°C
Wind Press
QNH
hPa
Press
MSL
hPa
Rain
since
9 am
mm
Dir
 
Spd
km/h
Gust
km/h
Spd
kts
Gust
kts
05/11:30pm 10.2 7.7 8.1 87 1.0 NNW 11 17 6 9 1015.2 1015.5 0.4
05/11:00pm 10.5 7.6 8.3 86 1.1 NW 13 24 7 13 1015.5 1015.8 0.4
05/10:30pm 10.8 8.3 8.0 83 1.4 NW 11 19 6 10 1015.7 1016.0 0.0
05/10:00pm 10.9 8.7 7.8 81 1.5 NW 9 15 5 8 1015.6 1015.9 0.0
05/09:30pm 10.8 8.9 7.5 80 1.6 NW 7 20 4 11 1015.5 1015.8 0.0
05/09:00pm 11.3 8.9 7.2 76 2.0 NW 9 20 5 11 1015.8 1016.1 0.0
05/08:30pm 11.1 9.2 7.4 78 1.8 NW 7 13 4 7 1015.7 1016.0 0.0
05/08:00pm 10.7 9.0 7.4 80 1.6 NW 6 9 3 5 1015.7 1016.0 0.0
05/07:30pm 10.8 9.0 7.3 79 1.7 NNW 6 13 3 7 1016.0 1016.3 0.0
05/07:00pm 11.2 8.4 7.1 76 2.0 NW 11 17 6 9 1015.8 1016.1 0.0
05/06:30pm 10.9 8.3 7.6 80 1.6 NW 11 17 6 9 1015.8 1016.1 0.0
05/06:00pm 10.4 8.4 8.5 88 0.9 NW 9 13 5 7 1015.7 1016.0 0.0
05/05:30pm 10.5 8.4 8.1 85 1.2 NW 9 15 5 8 1015.8 1016.1 0.0
05/05:00pm 10.4 8.6 8.0 85 1.2 NNW 7 15 4 8 1015.7 1016.0 0.0
05/04:30pm 10.6 8.4 7.8 83 1.4 NW 9 22 5 12 1015.7 1016.0 0.0
05/04:00pm 11.2 9.4 8.1 81 1.5 NNW 7 19 4 10 1015.7 1016.0 0.0
05/03:30pm 12.1 10.1 8.6 79 1.8 NNW 9 15 5 8 1015.9 1016.2 0.0
05/03:00pm 11.8 9.4 8.6 81 1.6 NW 11 24 6 13 1016.0 1016.3 0.0
05/02:30pm 11.8 9.5 9.0 83 1.4 NW 11 19 6 10 1016.1 1016.4 0.0
05/02:00pm 11.5 8.3 8.5 82 1.5 NW 15 28 8 15 1016.1 1016.4 0.0
05/01:30pm 11.6 8.5 9.0 84 1.3 NNW 15 28 8 15 1016.4 1016.7 0.0
05/01:00pm 10.9 8.5 8.7 86 1.1 NW 11 20 6 11 1016.9 1017.3 0.0
05/12:30pm 10.9 8.1 8.7 86 1.1 NW 13 22 7 12 1017.4 1017.7 0.0
05/12:00pm 10.2 7.7 8.3 88 0.9 NNW 11 24 6 13 1017.8 1018.1 0.0
05/11:30am 10.5 8.4 8.3 86 1.1 NNW 9 19 5 10 1018.1 1018.4 0.0
05/11:00am 10.9 9.2 8.3 84 1.3 NW 7 15 4 8 1018.5 1018.8 0.0
05/10:30am 10.1 8.1 7.3 83 1.4 N 7 15 4 8 1018.8 1019.1 0.0
05/10:00am 9.9 8.0 6.8 81 1.5 NW 6 17 3 9 1019.1 1019.5 0.0
05/09:30am 10.1 8.3 7.2 82 1.4 NNW 6 15 3 8 1019.2 1019.6 0.0
05/09:00am 10.3 9.0 7.7 84 1.3 N 4 11 2 6 1019.1 1019.5 0.0
05/08:30am 8.7 7.2 6.8 88 0.9 NNW 4 9 2 5 1019.2 1019.6 0.0
05/08:00am 7.2 5.9 6.0 92 0.6 NNW 2 6 1 3 1019.1 1019.5 0.0
05/07:30am 6.9 5.5 5.5 91 0.6 N 2 6 1 3 1019.0 1019.4 0.0
05/07:00am 7.0 5.6 5.5 90 0.7 N 2 6 1 3 1019.1 1019.5 0.0
05/06:30am 8.2 5.7 6.5 89 0.8 NW 9 15 5 8 1019.0 1019.4 0.0
05/06:00am 8.6 4.7 7.2 91 0.7 NW 17 22 9 12 1018.5 1018.8 0.0
05/05:30am 7.8 5.4 7.1 95 0.3 NNW 9 15 5 8 1018.6 1018.9 0.0
05/05:00am 8.0 5.3 7.2 95 0.4 NW 11 17 6 9 1018.7 1019.0 0.0
05/04:30am 8.3 6.0 7.5 95 0.4 NNW 9 15 5 8 1018.6 1018.9 0.0
05/04:00am 8.5 6.3 7.7 95 0.4 NNW 9 17 5 9 1018.7 1019.0 0.0
05/03:30am 8.6 6.4 7.8 95 0.4 NNW 9 15 5 8 1019.0 1019.4 0.0
05/03:00am 9.1 7.0 8.3 95 0.4 NW 9 17 5 9 1019.1 1019.5 0.0
05/02:30am 9.2 7.5 8.4 95 0.4 NW 7 13 4 7 1019.2 1019.6 0.0
05/02:00am 9.2 7.1 8.4 95 0.4 NW 9 17 5 9 1019.2 1019.6 0.0
05/01:30am 9.2 7.5 8.3 94 0.4 NW 7 15 4 8 1019.3 1019.7 0.0
05/01:00am 8.1 6.6 7.0 93 0.5 NW 4 7 2 4 1019.5 1019.9 0.0
05/12:30am 8.2 6.4 7.0 92 0.6 NNW 6 13 3 7 1019.8 1020.2 0.0
05/12:00am 7.7 6.1 6.3 91 0.6 N 4 6 2 3 1020.0 1020.4 0.0
 
Date/Time
CST
Tmp

°C
App
Tmp
°C
Dew
Point
°C
Rel
Hum
%
Delta-T

°C
Wind Press
QNH
hPa
Press
MSL
hPa
Rain
since
9 am
mm
Dir
 
Spd
km/h
Gust
km/h
Spd
kts
Gust
kts
04/11:30pm 7.9 6.3 6.5 91 0.7 NNW 4 6 2 3 1020.4 1020.7 0.0
04/11:00pm 7.6 6.3 6.2 91 0.6 NNW 2 7 1 4 1020.6 1020.9 0.0
04/10:30pm 7.4 6.5 6.0 91 0.6 CALM 0 0 0 0 1020.6 1020.9 0.0
04/10:00pm 7.4 6.5 5.9 90 0.7 CALM 0 0 0 0 1020.8 1021.1 0.0
04/09:30pm 7.6 6.7 5.9 89 0.8 CALM 0 0 0 0 1021.0 1021.3 0.0
04/09:00pm 7.7 6.7 5.8 88 0.9 CALM 0 0 0 0 1021.0 1021.3 0.0

Latest Capital City Observations: Canberra | Sydney | Melbourne | Brisbane | Adelaide | Perth | Hobart | Darwin

Other Formats:

Comma delimited format used in spreadsheet applications
http://www.bom.gov.au/fwo/IDS60901/IDS60901.94811.axf

JavaScript Object Notation format (JSON) in row-major order
http://www.bom.gov.au/fwo/IDS60901/IDS60901.94811.json